createdAt,value
2023-03-20T00:01:28.374Z,6.61
2023-03-20T00:03:54.795Z,6.53
2023-03-20T00:06:23.836Z,6.46
2023-03-20T00:08:54.878Z,6.59
2023-03-20T00:11:28.717Z,6.78
2023-03-20T00:13:57.873Z,6.88
2023-03-20T00:16:27.387Z,6.97
2023-03-20T00:18:56.214Z,7.13
2023-03-20T00:21:22.679Z,7.15
2023-03-20T00:23:49.265Z,7.19
2023-03-20T00:26:18.266Z,7.17
2023-03-20T00:28:47.910Z,7.15
2023-03-20T00:31:24.561Z,7.14
2023-03-20T00:33:52.284Z,7.30
2023-03-20T00:36:18.795Z,7.24
2023-03-20T00:38:45.222Z,7.22
2023-03-20T00:41:29.667Z,7.21
2023-03-20T00:44:02.292Z,7.09
2023-03-20T00:46:34.589Z,7.03
2023-03-20T00:49:01.888Z,6.91
2023-03-20T00:51:28.309Z,6.91
2023-03-20T00:53:54.775Z,6.85
2023-03-20T00:56:38.388Z,6.93
2023-03-20T00:59:05.018Z,6.77
2023-03-20T01:01:32.150Z,6.66
2023-03-20T01:03:59.642Z,6.55
2023-03-20T01:06:26.156Z,6.55
2023-03-20T01:08:52.519Z,6.57
2023-03-20T01:11:23.995Z,6.53
2023-03-20T01:13:52.226Z,6.65
2023-03-20T01:16:24.860Z,6.52
2023-03-20T01:18:52.722Z,6.42
2023-03-20T01:21:20.630Z,6.58
2023-03-20T01:23:49.112Z,6.53
2023-03-20T01:26:40.201Z,6.58
2023-03-20T01:29:16.836Z,6.58
2023-03-20T01:31:43.346Z,6.59
2023-03-20T01:34:11.737Z,6.62
2023-03-20T01:36:38.965Z,6.54
2023-03-20T01:39:06.140Z,6.48
2023-03-20T01:41:32.845Z,6.49
2023-03-20T01:44:06.779Z,6.47
2023-03-20T01:46:41.328Z,6.51
2023-03-20T01:49:19.920Z,6.51
2023-03-20T01:51:47.887Z,6.63
2023-03-20T01:54:20.243Z,6.65
2023-03-20T01:56:52.576Z,6.62
2023-03-20T01:59:27.654Z,6.69
2023-03-20T02:01:54.536Z,6.76
2023-03-20T02:04:26.981Z,6.82
2023-03-20T02:06:53.504Z,6.77
2023-03-20T02:09:19.874Z,6.83
2023-03-20T02:11:47.084Z,6.87
2023-03-20T02:14:13.724Z,6.89
2023-03-20T02:16:40.711Z,6.94
2023-03-20T02:19:19.009Z,6.94
2023-03-20T02:21:56.244Z,6.98
2023-03-20T02:24:31.874Z,6.98
2023-03-20T02:27:35.274Z,7.04
2023-03-20T02:30:37.781Z,7.01
2023-03-20T02:33:28.213Z,6.97
2023-03-20T02:36:10.142Z,6.89
2023-03-20T02:38:36.549Z,6.85
2023-03-20T02:41:05.639Z,6.86
2023-03-20T02:44:03.105Z,6.77
2023-03-20T02:46:29.507Z,6.75
2023-03-20T02:49:03.337Z,6.72
2023-03-20T02:51:41.735Z,6.78
2023-03-20T02:54:08.085Z,6.53
2023-03-20T02:56:43.613Z,6.53
2023-03-20T02:59:35.208Z,6.53
2023-03-20T03:02:08.576Z,6.55
2023-03-20T03:04:40.461Z,6.45
2023-03-20T03:07:10.080Z,6.46
2023-03-20T03:09:46.283Z,6.38
2023-03-20T03:12:18.040Z,6.42
2023-03-20T03:14:51.447Z,6.30
2023-03-20T03:17:21.345Z,6.43
2023-03-20T03:19:50.874Z,6.44
2023-03-20T03:22:18.599Z,6.52
2023-03-20T03:24:51.434Z,6.43
2023-03-20T03:27:36.707Z,6.42
2023-03-20T03:30:10.421Z,6.45
2023-03-20T03:32:44.765Z,6.54
2023-03-20T03:35:17.479Z,6.54
2023-03-20T03:37:56.253Z,6.42
2023-03-20T03:40:38.276Z,6.52
2023-03-20T03:43:14.711Z,6.49
2023-03-20T03:45:58.191Z,6.62
2023-03-20T03:48:32.485Z,6.58
2023-03-20T03:51:07.781Z,6.53
2023-03-20T03:53:42.688Z,6.62
2023-03-20T03:56:13.292Z,6.49
2023-03-20T03:58:51.403Z,6.47
2023-03-20T04:01:21.016Z,6.47
2023-03-20T04:03:53.720Z,6.63
2023-03-20T04:06:20.808Z,6.76
2023-03-20T04:08:47.267Z,6.66
2023-03-20T04:11:22.265Z,6.72
2023-03-20T04:13:50.572Z,6.79
2023-03-20T04:16:18.500Z,6.96
2023-03-20T04:18:45.863Z,7.00
2023-03-20T04:21:12.346Z,7.08
2023-03-20T04:23:39.145Z,7.32
2023-03-20T04:26:06.192Z,7.41
2023-03-20T04:28:33.062Z,7.38
2023-03-20T04:31:00.942Z,7.39
2023-03-20T04:33:28.424Z,7.49
2023-03-20T04:35:56.157Z,7.43
2023-03-20T04:38:23.887Z,7.56
2023-03-20T04:40:50.629Z,7.49
2023-03-20T04:43:17.383Z,7.50
2023-03-20T04:45:43.792Z,7.63
2023-03-20T04:48:10.877Z,7.59
2023-03-20T04:50:37.294Z,7.65
2023-03-20T04:53:03.764Z,7.53
2023-03-20T04:55:30.295Z,7.56
2023-03-20T04:57:56.762Z,7.52
2023-03-20T05:00:23.245Z,7.58
2023-03-20T05:02:49.676Z,7.57
2023-03-20T05:05:16.251Z,7.67
2023-03-20T05:07:42.804Z,7.64
2023-03-20T05:10:09.741Z,7.49
2023-03-20T05:12:36.285Z,7.27
2023-03-20T05:15:02.696Z,7.37
2023-03-20T05:17:29.157Z,7.28
2023-03-20T05:19:55.517Z,7.35
2023-03-20T05:22:21.935Z,7.33
2023-03-20T05:24:48.348Z,7.30
2023-03-20T05:27:14.746Z,7.30
2023-03-20T05:29:41.129Z,7.32
2023-03-20T05:32:07.580Z,7.33
2023-03-20T05:34:34.069Z,7.42
2023-03-20T05:37:00.459Z,7.44
2023-03-20T05:39:26.944Z,7.44
2023-03-20T05:41:53.462Z,7.41
2023-03-20T05:44:19.877Z,7.47
2023-03-20T05:46:46.333Z,7.52
2023-03-20T05:49:12.747Z,7.44
2023-03-20T05:51:39.135Z,7.51
2023-03-20T05:54:05.779Z,7.46
2023-03-20T05:56:32.212Z,7.54
2023-03-20T05:58:58.674Z,7.53
2023-03-20T06:01:25.185Z,7.53
2023-03-20T06:03:51.683Z,7.59
2023-03-20T06:06:18.159Z,7.55
2023-03-20T06:08:44.590Z,7.56
2023-03-20T06:11:11.671Z,7.56
2023-03-20T06:13:38.054Z,7.54
2023-03-20T06:16:05.080Z,7.53
2023-03-20T06:18:31.567Z,7.72
2023-03-20T06:20:58.179Z,7.69
2023-03-20T06:23:25.126Z,7.60
2023-03-20T06:25:51.685Z,7.59
2023-03-20T06:28:18.093Z,7.61
2023-03-20T06:30:44.799Z,7.70
2023-03-20T06:33:11.376Z,7.70
2023-03-20T06:35:38.551Z,7.80
2023-03-20T06:38:05.183Z,7.73
2023-03-20T06:40:31.821Z,7.80
2023-03-20T06:42:58.280Z,7.83
2023-03-20T06:45:24.774Z,7.85
2023-03-20T06:47:51.171Z,7.95
2023-03-20T06:50:17.687Z,8.07
2023-03-20T06:52:44.752Z,8.17
2023-03-20T06:55:11.428Z,7.97
2023-03-20T06:57:38.866Z,7.98
2023-03-20T07:00:06.421Z,8.07
2023-03-20T07:02:33.369Z,8.08
2023-03-20T07:04:59.885Z,8.10
2023-03-20T07:07:26.348Z,8.18
2023-03-20T07:09:52.752Z,8.19
2023-03-20T07:12:20.243Z,8.16
2023-03-20T07:14:46.836Z,8.24
2023-03-20T07:17:13.549Z,8.38
2023-03-20T07:19:40.139Z,8.36
2023-03-20T07:22:11.919Z,8.33
2023-03-20T07:24:38.459Z,8.27
2023-03-20T07:27:04.939Z,8.29
2023-03-20T07:29:31.341Z,8.24
2023-03-20T07:31:57.887Z,8.29
2023-03-20T07:34:24.297Z,8.33
2023-03-20T07:36:51.679Z,8.39
2023-03-20T07:39:18.088Z,8.46
2023-03-20T07:41:44.502Z,8.39
2023-03-20T07:44:11.036Z,8.28
2023-03-20T07:46:37.495Z,8.55
2023-03-20T07:49:03.893Z,8.68
2023-03-20T07:51:30.435Z,8.58
2023-03-20T07:53:56.860Z,8.55
2023-03-20T07:56:23.228Z,8.64
2023-03-20T07:58:49.646Z,8.59
2023-03-20T08:01:16.171Z,8.77
2023-03-20T08:03:42.693Z,8.87
2023-03-20T08:06:09.762Z,8.93
2023-03-20T08:08:36.493Z,9.01
2023-03-20T08:11:02.892Z,9.21
2023-03-20T08:13:29.367Z,9.27
2023-03-20T08:15:55.765Z,9.33
2023-03-20T08:18:22.435Z,9.13
2023-03-20T08:20:50.199Z,9.24
2023-03-20T08:23:20.434Z,9.06
2023-03-20T08:25:48.682Z,9.17
2023-03-20T08:28:15.580Z,9.24
2023-03-20T08:30:42.055Z,9.37
2023-03-20T08:33:08.774Z,9.34
2023-03-20T08:35:35.699Z,9.39
2023-03-20T08:38:02.922Z,9.47
2023-03-20T08:40:29.655Z,9.52
2023-03-20T08:42:56.339Z,9.59
2023-03-20T08:45:25.840Z,9.33
2023-03-20T08:47:52.727Z,9.34
2023-03-20T08:50:19.389Z,9.30
2023-03-20T08:52:46.969Z,9.34
2023-03-20T08:55:14.927Z,9.35
2023-03-20T08:57:41.478Z,9.25
2023-03-20T09:00:09.891Z,9.40
2023-03-20T09:02:37.388Z,9.36
2023-03-20T09:05:04.576Z,9.36
2023-03-20T09:07:31.077Z,9.41
2023-03-20T09:09:57.540Z,9.43
2023-03-20T09:12:24.226Z,9.47
2023-03-20T09:14:50.640Z,9.56
2023-03-20T09:17:17.129Z,9.67
2023-03-20T09:19:44.670Z,9.70
2023-03-20T09:22:15.216Z,9.81
2023-03-20T09:24:41.771Z,9.87
2023-03-20T09:27:08.457Z,9.81
2023-03-20T09:29:34.876Z,9.92
2023-03-20T09:32:02.021Z,9.97
2023-03-20T09:34:29.379Z,9.88
2023-03-20T09:36:56.055Z,9.82
2023-03-20T09:39:22.584Z,9.79
2023-03-20T09:41:57.190Z,9.86
2023-03-20T09:44:40.275Z,9.97
2023-03-20T09:47:21.693Z,9.99
2023-03-20T09:49:48.186Z,10.10
2023-03-20T09:53:11.392Z,10.13
2023-03-20T09:55:41.456Z,10.19
2023-03-20T09:58:35.740Z,10.03
2023-03-20T10:01:05.530Z,10.18
2023-03-20T10:03:50.529Z,10.04
2023-03-20T10:06:18.373Z,10.05
2023-03-20T10:08:46.400Z,10.20
2023-03-20T10:11:51.058Z,10.12
2023-03-20T10:14:28.013Z,9.97
2023-03-20T10:17:26.384Z,10.09
2023-03-20T10:20:02.764Z,10.02
2023-03-20T10:22:38.377Z,10.09
2023-03-20T10:25:21.255Z,10.18
2023-03-20T10:28:13.061Z,10.18
2023-03-20T10:31:13.548Z,9.98
2023-03-20T10:34:17.609Z,9.97
2023-03-20T10:36:53.627Z,10.04
2023-03-20T10:39:50.225Z,10.04
2023-03-20T10:42:23.625Z,10.07
2023-03-20T10:45:02.017Z,10.20
2023-03-20T10:47:33.436Z,10.01
2023-03-20T10:50:17.272Z,10.00
2023-03-20T10:52:46.228Z,9.91
2023-03-20T10:55:20.760Z,9.90
2023-03-20T10:58:03.387Z,9.99
2023-03-20T11:00:29.960Z,9.99
2023-03-20T11:02:56.539Z,9.94
2023-03-20T11:05:30.174Z,9.97
2023-03-20T11:08:08.896Z,10.05
2023-03-20T11:10:38.245Z,10.17
2023-03-20T11:13:26.525Z,9.87
2023-03-20T11:15:54.294Z,10.16
2023-03-20T11:18:24.686Z,10.27
2023-03-20T11:20:56.557Z,10.30
2023-03-20T11:23:33.150Z,10.25
2023-03-20T11:26:02.908Z,10.04
2023-03-20T11:28:40.886Z,10.07
2023-03-20T11:31:13.605Z,9.93
2023-03-20T11:33:44.325Z,9.85
2023-03-20T11:36:33.156Z,9.82
2023-03-20T11:39:16.516Z,9.80
2023-03-20T11:41:50.409Z,9.82
2023-03-20T11:44:36.759Z,9.82
2023-03-20T11:47:04.756Z,9.65
2023-03-20T11:49:52.774Z,9.77
2023-03-20T11:52:25.638Z,9.70
2023-03-20T11:54:56.237Z,9.70
2023-03-20T11:57:42.641Z,9.55
2023-03-20T12:00:11.915Z,9.53
2023-03-20T12:02:41.303Z,9.49
2023-03-20T12:05:32.799Z,9.40
2023-03-20T12:08:10.253Z,9.52
2023-03-20T12:10:42.367Z,9.45
2023-03-20T12:13:23.456Z,9.38
2023-03-20T12:15:55.566Z,9.41
2023-03-20T12:18:33.325Z,9.46
2023-03-20T12:21:14.701Z,9.58
2023-03-20T12:23:45.746Z,9.57
2023-03-20T12:26:15.148Z,9.57
2023-03-20T12:28:47.355Z,9.75
2023-03-20T12:31:41.601Z,9.79
2023-03-20T12:34:27.921Z,9.81
2023-03-20T12:36:57.491Z,9.83
2023-03-20T12:39:34.798Z,9.86
2023-03-20T12:42:22.317Z,9.84
2023-03-20T12:44:53.450Z,9.87
2023-03-20T12:47:41.060Z,9.93
2023-03-20T12:50:33.909Z,10.04
2023-03-20T12:53:12.451Z,10.07
2023-03-20T12:56:04.298Z,10.09
2023-03-20T12:58:51.643Z,10.10
2023-03-20T13:01:37.807Z,10.19
2023-03-20T13:04:23.037Z,10.14
2023-03-20T13:06:55.847Z,10.05
2023-03-20T13:09:44.663Z,10.00
2023-03-20T13:12:14.452Z,10.01
2023-03-20T13:15:16.093Z,9.98
2023-03-20T13:17:48.382Z,10.08
2023-03-20T13:20:27.143Z,10.18
2023-03-20T13:23:15.657Z,10.28
2023-03-20T13:26:23.576Z,10.41
2023-03-20T13:29:15.307Z,10.40
2023-03-20T13:32:06.328Z,10.39
2023-03-20T13:34:52.918Z,10.43
2023-03-20T13:37:28.307Z,10.41
2023-03-20T13:40:05.945Z,10.34
2023-03-20T13:42:50.336Z,10.48
2023-03-20T13:45:31.395Z,10.40
2023-03-20T13:48:02.307Z,10.44
2023-03-20T13:51:02.218Z,10.37
2023-03-20T13:53:33.697Z,10.40
2023-03-20T13:56:22.026Z,10.28
2023-03-20T13:59:10.219Z,10.12
2023-03-20T14:02:02.544Z,10.11
2023-03-20T14:04:30.532Z,10.01
2023-03-20T14:06:59.310Z,9.98
2023-03-20T14:09:27.435Z,10.03
2023-03-20T14:11:56.471Z,9.97
2023-03-20T14:14:41.186Z,9.90
2023-03-20T14:17:16.785Z,9.94
2023-03-20T14:19:43.770Z,9.80
2023-03-20T14:22:21.456Z,9.76
2023-03-20T14:24:54.962Z,9.86
2023-03-20T14:27:36.873Z,9.84
2023-03-20T14:30:42.700Z,9.99
2023-03-20T14:33:15.414Z,10.08
2023-03-20T14:35:49.327Z,10.01
2023-03-20T14:38:26.428Z,9.89
2023-03-20T14:40:59.221Z,9.91
2023-03-20T14:43:47.522Z,9.87
2023-03-20T14:46:26.193Z,10.02
2023-03-20T14:48:56.427Z,9.97
2023-03-20T14:51:22.771Z,9.93
2023-03-20T14:53:57.708Z,9.99
2023-03-20T14:56:32.097Z,10.05
2023-03-20T14:59:02.831Z,9.94
2023-03-20T15:01:38.448Z,9.92
2023-03-20T15:04:37.509Z,9.87
2023-03-20T15:07:17.779Z,9.85
2023-03-20T15:09:47.438Z,9.90
2023-03-20T15:12:19.468Z,9.84
2023-03-20T15:14:52.574Z,9.87
2023-03-20T15:17:23.812Z,9.78
2023-03-20T15:19:50.942Z,9.73
2023-03-20T15:22:19.852Z,9.77
2023-03-20T15:24:55.709Z,9.57
2023-03-20T15:27:25.816Z,9.69
2023-03-20T15:29:55.524Z,9.72
2023-03-20T15:32:22.404Z,9.78
2023-03-20T15:34:51.011Z,9.76
2023-03-20T15:37:21.821Z,9.83
2023-03-20T15:39:51.778Z,9.87
2023-03-20T15:42:21.460Z,9.81
2023-03-20T15:44:50.345Z,9.78
2023-03-20T15:47:22.433Z,9.63
2023-03-20T15:49:52.322Z,9.79
2023-03-20T15:52:53.942Z,9.55
2023-03-20T15:55:23.483Z,9.67
2023-03-20T15:57:53.942Z,9.73
2023-03-20T16:00:30.474Z,9.57
2023-03-20T16:02:59.015Z,9.72
2023-03-20T16:05:28.920Z,9.58
2023-03-20T16:07:56.294Z,9.61
2023-03-20T16:10:38.146Z,9.53
2023-03-20T16:13:07.265Z,9.50
2023-03-20T16:15:34.440Z,9.59
2023-03-20T16:18:04.559Z,9.50
2023-03-20T16:20:36.798Z,9.47
2023-03-20T16:23:07.284Z,9.41
2023-03-20T16:25:35.442Z,9.31
2023-03-20T16:28:07.049Z,9.30
2023-03-20T16:30:34.980Z,9.31
2023-03-20T16:33:06.700Z,9.37
2023-03-20T16:35:47.413Z,9.35
2023-03-20T16:38:24.036Z,9.30
2023-03-20T16:41:01.032Z,9.27
2023-03-20T16:43:31.339Z,9.19
2023-03-20T16:46:04.606Z,9.28
2023-03-20T16:48:37.830Z,9.20
2023-03-20T16:51:24.555Z,9.18
2023-03-20T16:53:56.447Z,9.15
2023-03-20T16:56:38.323Z,9.15
2023-03-20T16:59:09.072Z,9.15
2023-03-20T17:01:35.651Z,9.13
2023-03-20T17:04:33.652Z,9.12
2023-03-20T17:07:07.356Z,9.11
2023-03-20T17:09:34.111Z,9.26
2023-03-20T17:12:13.180Z,9.10
2023-03-20T17:14:45.066Z,9.03
2023-03-20T17:17:19.439Z,9.05
2023-03-20T17:19:46.955Z,8.91
2023-03-20T17:22:15.854Z,8.91
2023-03-20T17:24:42.385Z,9.00
2023-03-20T17:27:12.188Z,8.87
2023-03-20T17:29:39.746Z,8.79
2023-03-20T17:32:15.323Z,8.75
2023-03-20T17:34:42.833Z,8.67
2023-03-20T17:37:22.724Z,8.71
2023-03-20T17:39:49.346Z,8.72
2023-03-20T17:42:20.790Z,8.77
2023-03-20T17:44:48.187Z,8.73
2023-03-20T17:47:19.953Z,8.89
2023-03-20T17:49:46.497Z,8.90
2023-03-20T17:52:18.946Z,8.81
2023-03-20T17:54:46.446Z,8.86
2023-03-20T17:57:32.643Z,9.01
2023-03-20T18:00:00.097Z,8.74
2023-03-20T18:02:26.835Z,8.84
2023-03-20T18:04:53.486Z,8.87
2023-03-20T18:07:20.385Z,8.84
2023-03-20T18:09:48.856Z,8.82
2023-03-20T18:12:17.498Z,8.80
2023-03-20T18:14:45.620Z,8.84
2023-03-20T18:17:13.856Z,8.80
2023-03-20T18:19:41.694Z,8.76
2023-03-20T18:22:09.342Z,8.72
2023-03-20T18:24:36.523Z,8.80
2023-03-20T18:27:03.106Z,8.80
2023-03-20T18:29:29.590Z,8.77
2023-03-20T18:31:56.005Z,8.75
2023-03-20T18:34:22.578Z,8.74
2023-03-20T18:36:49.353Z,8.71
2023-03-20T18:39:21.723Z,8.71
2023-03-20T18:41:48.979Z,8.59
2023-03-20T18:44:15.789Z,8.53
2023-03-20T18:46:43.357Z,8.55
2023-03-20T18:49:14.687Z,8.54
2023-03-20T18:51:41.190Z,8.64
2023-03-20T18:54:07.855Z,8.54
2023-03-20T18:56:36.831Z,8.53
2023-03-20T18:59:07.750Z,8.55
2023-03-20T19:01:36.114Z,8.49
2023-03-20T19:04:03.175Z,8.44
2023-03-20T19:06:32.089Z,8.43
2023-03-20T19:08:59.390Z,8.34
2023-03-20T19:11:25.900Z,8.32
2023-03-20T19:13:53.693Z,8.28
2023-03-20T19:16:20.304Z,8.46
2023-03-20T19:18:47.144Z,8.40
2023-03-20T19:21:14.006Z,8.21
2023-03-20T19:23:40.555Z,8.17
2023-03-20T19:26:15.873Z,8.29
2023-03-20T19:28:44.088Z,8.29
2023-03-20T19:31:11.236Z,8.25
2023-03-20T19:33:38.671Z,8.21
2023-03-20T19:36:06.718Z,8.30
2023-03-20T19:38:34.244Z,8.20
2023-03-20T19:41:02.556Z,8.27
2023-03-20T19:43:30.803Z,8.23
2023-03-20T19:45:59.314Z,8.24
2023-03-20T19:48:46.218Z,8.16
2023-03-20T19:51:26.877Z,8.16
2023-03-20T19:53:54.535Z,8.14
2023-03-20T19:56:22.664Z,8.12
2023-03-20T19:58:49.947Z,8.13
2023-03-20T20:01:19.431Z,8.14
2023-03-20T20:03:46.699Z,8.05
2023-03-20T20:06:33.432Z,8.05
2023-03-20T20:09:01.677Z,8.11
2023-03-20T20:11:28.663Z,8.04
2023-03-20T20:14:06.708Z,8.10
2023-03-20T20:16:39.800Z,8.08
2023-03-20T20:19:06.732Z,8.14
2023-03-20T20:24:21.594Z,8.08
2023-03-20T20:26:54.967Z,8.04
2023-03-20T20:29:28.025Z,8.07
2023-03-20T20:31:54.558Z,8.05
2023-03-20T20:35:22.602Z,7.97
2023-03-20T20:37:51.755Z,7.92
2023-03-20T20:39:56.903Z,7.81
2023-03-20T20:42:23.499Z,7.90
2023-03-20T20:44:50.304Z,7.89
2023-03-20T20:47:17.147Z,7.82
2023-03-20T20:49:46.466Z,7.85
2023-03-20T20:52:13.690Z,7.68
2023-03-20T20:54:43.241Z,7.82
2023-03-20T20:57:11.632Z,7.86
2023-03-20T20:59:40.263Z,7.88
2023-03-20T21:02:12.592Z,7.95
2023-03-20T21:04:43.417Z,7.97
2023-03-20T21:07:12.857Z,7.75
2023-03-20T21:09:40.824Z,7.71
2023-03-20T21:12:08.518Z,7.74
2023-03-20T21:14:35.199Z,7.82
2023-03-20T21:17:01.796Z,7.93
2023-03-20T21:19:37.718Z,7.92
2023-03-20T21:22:05.190Z,7.93
2023-03-20T21:24:35.104Z,7.95
2023-03-20T21:27:08.120Z,7.83
2023-03-20T21:29:34.861Z,7.89
2023-03-20T21:32:01.419Z,7.86
2023-03-20T21:34:29.063Z,7.85
2023-03-20T21:36:57.814Z,7.85
2023-03-20T21:39:26.019Z,7.89
2023-03-20T21:41:52.452Z,7.87
2023-03-20T21:44:46.114Z,7.63
2023-03-20T21:51:23.450Z,7.57
2023-03-20T21:53:12.436Z,7.81
2023-03-20T22:01:42.025Z,7.62
2023-03-20T22:10:05.712Z,7.40
2023-03-20T22:12:59.451Z,7.53
2023-03-20T22:15:39.372Z,7.47
2023-03-20T22:18:14.852Z,7.46
2023-03-20T22:21:29.710Z,7.55
2023-03-20T22:24:01.698Z,7.55
2023-03-20T22:29:32.438Z,7.62
2023-03-20T22:35:04.328Z,7.77
2023-03-20T22:38:17.127Z,7.72
2023-03-20T22:40:59.288Z,7.82
2023-03-20T22:42:57.392Z,7.86
2023-03-20T22:45:37.866Z,7.86
2023-03-20T22:48:10.835Z,7.87
2023-03-20T22:50:38.640Z,7.90
2023-03-20T22:53:05.381Z,7.78
2023-03-20T22:55:32.090Z,7.85
2023-03-20T22:58:06.956Z,7.83
2023-03-20T23:00:35.489Z,7.87
2023-03-20T23:03:33.383Z,7.91
2023-03-20T23:05:48.582Z,7.78
2023-03-20T23:08:15.061Z,7.90
2023-03-20T23:10:48.637Z,7.74
2023-03-20T23:13:17.052Z,7.80
2023-03-20T23:15:46.661Z,7.79
2023-03-20T23:18:14.768Z,7.81
2023-03-20T23:20:41.562Z,7.81
2023-03-20T23:23:08.266Z,7.67
2023-03-20T23:25:41.833Z,7.76
2023-03-20T23:28:09.661Z,7.67
2023-03-20T23:30:49.811Z,7.57
2023-03-20T23:33:23.320Z,7.62
2023-03-20T23:35:58.480Z,7.51
2023-03-20T23:38:31.481Z,7.76
2023-03-20T23:40:57.962Z,7.74
2023-03-20T23:43:25.358Z,7.65
2023-03-20T23:45:51.944Z,7.46
2023-03-20T23:48:18.603Z,7.52
2023-03-20T23:50:53.081Z,7.59
2023-03-20T23:53:21.239Z,7.47
2023-03-20T23:55:52.957Z,7.58
2023-03-20T23:58:21.536Z,7.53
